sensor_id;sensor_type;location;lat;lon;timestamp;temperature;humidity
64858;SHT30;51335;51.148;6.950;2023-02-24T00:00:27;6.05;97.00
64858;SHT30;51335;51.148;6.950;2023-02-24T00:00:58;6.02;97.02
64858;SHT30;51335;51.148;6.950;2023-02-24T00:01:28;6.02;96.95
64858;SHT30;51335;51.148;6.950;2023-02-24T00:02:01;5.99;96.98
64858;SHT30;51335;51.148;6.950;2023-02-24T00:02:32;5.98;96.93
64858;SHT30;51335;51.148;6.950;2023-02-24T00:03:03;5.98;96.85
64858;SHT30;51335;51.148;6.950;2023-02-24T00:03:36;5.92;97.07
64858;SHT30;51335;51.148;6.950;2023-02-24T00:04:09;5.92;97.20
64858;SHT30;51335;51.148;6.950;2023-02-24T00:04:40;5.92;97.22
64858;SHT30;51335;51.148;6.950;2023-02-24T00:05:10;5.90;97.32
64858;SHT30;51335;51.148;6.950;2023-02-24T00:05:40;5.93;97.39
64858;SHT30;51335;51.148;6.950;2023-02-24T00:06:11;6.00;97.03
64858;SHT30;51335;51.148;6.950;2023-02-24T00:06:42;5.99;96.87
64858;SHT30;51335;51.148;6.950;2023-02-24T00:07:12;6.02;96.90
64858;SHT30;51335;51.148;6.950;2023-02-24T00:07:42;6.07;96.74
64858;SHT30;51335;51.148;6.950;2023-02-24T00:08:12;6.16;96.52
64858;SHT30;51335;51.148;6.950;2023-02-24T00:08:43;6.07;96.19
64858;SHT30;51335;51.148;6.950;2023-02-24T00:09:22;6.05;96.28
64858;SHT30;51335;51.148;6.950;2023-02-24T00:09:53;6.02;96.33
64858;SHT30;51335;51.148;6.950;2023-02-24T00:10:23;6.00;96.08
64858;SHT30;51335;51.148;6.950;2023-02-24T00:10:53;6.00;96.06
64858;SHT30;51335;51.148;6.950;2023-02-24T00:11:24;6.05;96.03
64858;SHT30;51335;51.148;6.950;2023-02-24T00:11:58;6.06;95.93
64858;SHT30;51335;51.148;6.950;2023-02-24T00:12:29;6.06;95.95
64858;SHT30;51335;51.148;6.950;2023-02-24T00:13:00;6.11;95.72
64858;SHT30;51335;51.148;6.950;2023-02-24T00:13:30;6.14;94.86
64858;SHT30;51335;51.148;6.950;2023-02-24T00:14:03;6.16;94.54
64858;SHT30;51335;51.148;6.950;2023-02-24T00:14:35;6.17;94.42
64858;SHT30;51335;51.148;6.950;2023-02-24T00:15:06;6.20;94.34
64858;SHT30;51335;51.148;6.950;2023-02-24T00:15:36;6.14;94.37
64858;SHT30;51335;51.148;6.950;2023-02-24T00:16:06;6.10;94.45
64858;SHT30;51335;51.148;6.950;2023-02-24T00:16:37;6.13;94.32
64858;SHT30;51335;51.148;6.950;2023-02-24T00:17:08;6.05;94.27
64858;SHT30;51335;51.148;6.950;2023-02-24T00:17:39;6.07;94.60
64858;SHT30;51335;51.148;6.950;2023-02-24T00:18:09;6.03;94.48
64858;SHT30;51335;51.148;6.950;2023-02-24T00:18:39;6.05;94.41
64858;SHT30;51335;51.148;6.950;2023-02-24T00:19:15;6.07;94.29
64858;SHT30;51335;51.148;6.950;2023-02-24T00:19:45;6.10;94.16
64858;SHT30;51335;51.148;6.950;2023-02-24T00:20:16;6.06;94.08
64858;SHT30;51335;51.148;6.950;2023-02-24T00:20:46;6.02;94.19
64858;SHT30;51335;51.148;6.950;2023-02-24T00:21:16;6.05;94.32
64858;SHT30;51335;51.148;6.950;2023-02-24T00:21:47;6.07;94.36
64858;SHT30;51335;51.148;6.950;2023-02-24T00:22:17;6.14;94.03
64858;SHT30;51335;51.148;6.950;2023-02-24T00:22:47;6.13;93.69
64858;SHT30;51335;51.148;6.950;2023-02-24T00:23:17;6.10;93.67
64858;SHT30;51335;51.148;6.950;2023-02-24T00:23:48;6.03;93.92
64858;SHT30;51335;51.148;6.950;2023-02-24T00:24:19;5.98;93.78
64858;SHT30;51335;51.148;6.950;2023-02-24T00:24:52;5.93;93.94
64858;SHT30;51335;51.148;6.950;2023-02-24T00:25:23;5.93;94.19
64858;SHT30;51335;51.148;6.950;2023-02-24T00:26:03;5.92;94.18
64858;SHT30;51335;51.148;6.950;2023-02-24T00:26:34;5.95;94.19
64858;SHT30;51335;51.148;6.950;2023-02-24T00:27:05;5.93;94.26
64858;SHT30;51335;51.148;6.950;2023-02-24T00:27:35;6.02;94.10
64858;SHT30;51335;51.148;6.950;2023-02-24T00:28:06;6.05;94.00
64858;SHT30;51335;51.148;6.950;2023-02-24T00:28:36;6.09;93.33
64858;SHT30;51335;51.148;6.950;2023-02-24T00:29:09;6.06;93.08
64858;SHT30;51335;51.148;6.950;2023-02-24T00:29:39;6.09;93.40
64858;SHT30;51335;51.148;6.950;2023-02-24T00:30:10;6.07;93.42
64858;SHT30;51335;51.148;6.950;2023-02-24T00:30:40;6.09;93.52
64858;SHT30;51335;51.148;6.950;2023-02-24T00:31:13;6.14;93.58
64858;SHT30;51335;51.148;6.950;2023-02-24T00:31:43;6.11;93.40
64858;SHT30;51335;51.148;6.950;2023-02-24T00:32:13;6.16;93.42
64858;SHT30;51335;51.148;6.950;2023-02-24T00:32:44;6.16;93.32
64858;SHT30;51335;51.148;6.950;2023-02-24T00:33:14;6.07;93.15
64858;SHT30;51335;51.148;6.950;2023-02-24T00:33:45;6.03;93.22
64858;SHT30;51335;51.148;6.950;2023-02-24T00:34:15;5.93;93.37
64858;SHT30;51335;51.148;6.950;2023-02-24T00:34:46;5.89;93.84
64858;SHT30;51335;51.148;6.950;2023-02-24T00:35:17;5.86;93.97
64858;SHT30;51335;51.148;6.950;2023-02-24T00:35:47;5.83;94.10
64858;SHT30;51335;51.148;6.950;2023-02-24T00:36:19;5.85;94.24
64858;SHT30;51335;51.148;6.950;2023-02-24T00:36:50;5.86;94.35
64858;SHT30;51335;51.148;6.950;2023-02-24T00:37:20;5.95;94.26
64858;SHT30;51335;51.148;6.950;2023-02-24T00:37:50;6.02;94.09
64858;SHT30;51335;51.148;6.950;2023-02-24T00:38:20;6.06;93.94
64858;SHT30;51335;51.148;6.950;2023-02-24T00:38:56;6.07;93.90
64858;SHT30;51335;51.148;6.950;2023-02-24T00:39:28;6.00;93.69
64858;SHT30;51335;51.148;6.950;2023-02-24T00:39:58;5.96;93.85
64858;SHT30;51335;51.148;6.950;2023-02-24T00:40:28;5.92;93.97
64858;SHT30;51335;51.148;6.950;2023-02-24T00:40:58;5.93;94.18
64858;SHT30;51335;51.148;6.950;2023-02-24T00:41:31;5.93;94.19
64858;SHT30;51335;51.148;6.950;2023-02-24T00:42:04;5.93;94.24
64858;SHT30;51335;51.148;6.950;2023-02-24T00:42:35;6.03;94.32
64858;SHT30;51335;51.148;6.950;2023-02-24T00:43:05;6.10;93.89
64858;SHT30;51335;51.148;6.950;2023-02-24T00:43:35;6.11;93.58
64858;SHT30;51335;51.148;6.950;2023-02-24T00:44:07;6.11;93.13
64858;SHT30;51335;51.148;6.950;2023-02-24T00:44:40;6.03;93.31
64858;SHT30;51335;51.148;6.950;2023-02-24T00:45:12;6.09;93.61
64858;SHT30;51335;51.148;6.950;2023-02-24T00:45:43;6.07;93.48
64858;SHT30;51335;51.148;6.950;2023-02-24T00:46:18;6.13;93.53
64858;SHT30;51335;51.148;6.950;2023-02-24T00:46:48;6.14;93.50
64858;SHT30;51335;51.148;6.950;2023-02-24T00:47:19;6.17;93.54
64858;SHT30;51335;51.148;6.950;2023-02-24T00:47:49;6.19;93.49
64858;SHT30;51335;51.148;6.950;2023-02-24T00:48:20;6.10;93.25
64858;SHT30;51335;51.148;6.950;2023-02-24T00:48:52;6.10;93.30
64858;SHT30;51335;51.148;6.950;2023-02-24T00:49:23;6.10;93.62
64858;SHT30;51335;51.148;6.950;2023-02-24T00:49:53;6.16;93.44
64858;SHT30;51335;51.148;6.950;2023-02-24T00:50:23;6.16;93.46
64858;SHT30;51335;51.148;6.950;2023-02-24T00:50:53;6.13;93.38
64858;SHT30;51335;51.148;6.950;2023-02-24T00:51:25;6.03;93.18
64858;SHT30;51335;51.148;6.950;2023-02-24T00:51:55;6.05;93.51
64858;SHT30;51335;51.148;6.950;2023-02-24T00:52:25;6.10;93.52
64858;SHT30;51335;51.148;6.950;2023-02-24T00:52:56;6.07;93.46
64858;SHT30;51335;51.148;6.950;2023-02-24T00:53:26;6.10;93.52
64858;SHT30;51335;51.148;6.950;2023-02-24T00:53:56;6.13;93.64
64858;SHT30;51335;51.148;6.950;2023-02-24T00:54:27;6.17;93.58
64858;SHT30;51335;51.148;6.950;2023-02-24T00:54:57;6.17;93.38
64858;SHT30;51335;51.148;6.950;2023-02-24T00:55:27;6.05;93.36
64858;SHT30;51335;51.148;6.950;2023-02-24T00:56:00;5.99;93.52
64858;SHT30;51335;51.148;6.950;2023-02-24T00:56:31;5.95;93.88
64858;SHT30;51335;51.148;6.950;2023-02-24T00:57:01;5.93;93.96
64858;SHT30;51335;51.148;6.950;2023-02-24T00:57:31;5.92;94.10
64858;SHT30;51335;51.148;6.950;2023-02-24T00:58:03;5.90;94.03
64858;SHT30;51335;51.148;6.950;2023-02-24T00:58:34;5.92;94.04
64858;SHT30;51335;51.148;6.950;2023-02-24T00:59:04;5.88;93.98
64858;SHT30;51335;51.148;6.950;2023-02-24T00:59:35;5.89;94.11
64858;SHT30;51335;51.148;6.950;2023-02-24T01:00:06;5.89;94.05
64858;SHT30;51335;51.148;6.950;2023-02-24T01:00:37;5.85;94.03
64858;SHT30;51335;51.148;6.950;2023-02-24T01:01:11;5.83;94.31
64858;SHT30;51335;51.148;6.950;2023-02-24T01:01:42;5.86;94.30
64858;SHT30;51335;51.148;6.950;2023-02-24T01:02:14;5.86;94.29
64858;SHT30;51335;51.148;6.950;2023-02-24T01:02:44;5.80;94.32
64858;SHT30;51335;51.148;6.950;2023-02-24T01:03:14;5.76;94.60
64858;SHT30;51335;51.148;6.950;2023-02-24T01:03:46;5.83;94.57
64858;SHT30;51335;51.148;6.950;2023-02-24T01:04:17;5.85;94.26
64858;SHT30;51335;51.148;6.950;2023-02-24T01:04:47;5.83;94.22
64858;SHT30;51335;51.148;6.950;2023-02-24T01:05:18;5.72;94.48
64858;SHT30;51335;51.148;6.950;2023-02-24T01:05:48;5.68;94.50
64858;SHT30;51335;51.148;6.950;2023-02-24T01:06:20;5.70;94.57
64858;SHT30;51335;51.148;6.950;2023-02-24T01:06:52;5.65;94.85
64858;SHT30;51335;51.148;6.950;2023-02-24T01:07:22;5.63;95.05
64858;SHT30;51335;51.148;6.950;2023-02-24T01:07:53;5.59;95.19
64858;SHT30;51335;51.148;6.950;2023-02-24T01:08:23;5.61;95.29
64858;SHT30;51335;51.148;6.950;2023-02-24T01:08:54;5.56;95.33
64858;SHT30;51335;51.148;6.950;2023-02-24T01:09:27;5.65;95.05
64858;SHT30;51335;51.148;6.950;2023-02-24T01:09:58;5.70;94.96
64858;SHT30;51335;51.148;6.950;2023-02-24T01:10:28;5.75;94.64
64858;SHT30;51335;51.148;6.950;2023-02-24T01:10:59;5.79;94.60
64858;SHT30;51335;51.148;6.950;2023-02-24T01:11:32;5.72;94.50
64858;SHT30;51335;51.148;6.950;2023-02-24T01:12:09;5.70;94.67
64858;SHT30;51335;51.148;6.950;2023-02-24T01:12:40;5.69;94.86
64858;SHT30;51335;51.148;6.950;2023-02-24T01:13:10;5.63;95.02
64858;SHT30;51335;51.148;6.950;2023-02-24T01:13:40;5.61;95.39
64858;SHT30;51335;51.148;6.950;2023-02-24T01:14:15;5.56;95.26
64858;SHT30;51335;51.148;6.950;2023-02-24T01:14:47;5.63;95.37
64858;SHT30;51335;51.148;6.950;2023-02-24T01:15:20;5.73;94.94
64858;SHT30;51335;51.148;6.950;2023-02-24T01:15:58;5.86;94.54
64858;SHT30;51335;51.148;6.950;2023-02-24T01:16:28;5.92;94.33
64858;SHT30;51335;51.148;6.950;2023-02-24T01:16:59;5.95;94.15
64858;SHT30;51335;51.148;6.950;2023-02-24T01:17:29;5.92;93.95
64858;SHT30;51335;51.148;6.950;2023-02-24T01:17:59;5.88;93.94
64858;SHT30;51335;51.148;6.950;2023-02-24T01:18:30;5.85;93.81
64858;SHT30;51335;51.148;6.950;2023-02-24T01:19:01;5.78;94.03
64858;SHT30;51335;51.148;6.950;2023-02-24T01:19:32;5.83;94.37
64858;SHT30;51335;51.148;6.950;2023-02-24T01:20:04;5.83;94.40
64858;SHT30;51335;51.148;6.950;2023-02-24T01:20:35;5.78;94.22
64858;SHT30;51335;51.148;6.950;2023-02-24T01:21:06;5.73;94.34
64858;SHT30;51335;51.148;6.950;2023-02-24T01:21:36;5.72;94.54
64858;SHT30;51335;51.148;6.950;2023-02-24T01:22:08;5.76;94.35
64858;SHT30;51335;51.148;6.950;2023-02-24T01:22:38;5.73;94.27
64858;SHT30;51335;51.148;6.950;2023-02-24T01:23:14;5.68;94.49
64858;SHT30;51335;51.148;6.950;2023-02-24T01:23:50;5.66;94.62
64858;SHT30;51335;51.148;6.950;2023-02-24T01:24:21;5.68;94.66
64858;SHT30;51335;51.148;6.950;2023-02-24T01:24:51;5.68;94.59
64858;SHT30;51335;51.148;6.950;2023-02-24T01:25:22;5.68;94.76
64858;SHT30;51335;51.148;6.950;2023-02-24T01:25:52;5.72;94.68
64858;SHT30;51335;51.148;6.950;2023-02-24T01:26:23;5.65;94.65
64858;SHT30;51335;51.148;6.950;2023-02-24T01:26:54;5.63;94.85
64858;SHT30;51335;51.148;6.950;2023-02-24T01:27:24;5.62;94.85
64858;SHT30;51335;51.148;6.950;2023-02-24T01:27:54;5.56;95.10
64858;SHT30;51335;51.148;6.950;2023-02-24T01:28:25;5.55;95.32
64858;SHT30;51335;51.148;6.950;2023-02-24T01:28:56;5.55;95.33
64858;SHT30;51335;51.148;6.950;2023-02-24T01:29:26;5.54;95.35
64858;SHT30;51335;51.148;6.950;2023-02-24T01:29:56;5.52;95.47
64858;SHT30;51335;51.148;6.950;2023-02-24T01:30:27;5.50;95.68
64858;SHT30;51335;51.148;6.950;2023-02-24T01:31:01;5.44;95.82
64858;SHT30;51335;51.148;6.950;2023-02-24T01:31:31;5.44;95.97
64858;SHT30;51335;51.148;6.950;2023-02-24T01:32:01;5.42;96.14
64858;SHT30;51335;51.148;6.950;2023-02-24T01:32:32;5.44;95.97
64858;SHT30;51335;51.148;6.950;2023-02-24T01:33:02;5.41;95.96
64858;SHT30;51335;51.148;6.950;2023-02-24T01:33:33;5.47;95.89
64858;SHT30;51335;51.148;6.950;2023-02-24T01:34:04;5.50;95.32
64858;SHT30;51335;51.148;6.950;2023-02-24T01:34:34;5.50;95.23
64858;SHT30;51335;51.148;6.950;2023-02-24T01:35:05;5.50;95.35
64858;SHT30;51335;51.148;6.950;2023-02-24T01:35:35;5.48;95.39
64858;SHT30;51335;51.148;6.950;2023-02-24T01:36:13;5.50;95.49
64858;SHT30;51335;51.148;6.950;2023-02-24T01:36:45;5.44;95.52
64858;SHT30;51335;51.148;6.950;2023-02-24T01:37:15;5.41;95.70
64858;SHT30;51335;51.148;6.950;2023-02-24T01:37:46;5.45;95.73
64858;SHT30;51335;51.148;6.950;2023-02-24T01:38:16;5.47;95.50
64858;SHT30;51335;51.148;6.950;2023-02-24T01:38:47;5.41;95.62
64858;SHT30;51335;51.148;6.950;2023-02-24T01:39:17;5.40;95.80
64858;SHT30;51335;51.148;6.950;2023-02-24T01:39:48;5.38;95.62
64858;SHT30;51335;51.148;6.950;2023-02-24T01:40:19;5.37;95.84
64858;SHT30;51335;51.148;6.950;2023-02-24T01:40:57;5.34;95.75
64858;SHT30;51335;51.148;6.950;2023-02-24T01:41:27;5.34;95.81
64858;SHT30;51335;51.148;6.950;2023-02-24T01:41:58;5.34;95.61
64858;SHT30;51335;51.148;6.950;2023-02-24T01:42:28;5.40;95.24
64858;SHT30;51335;51.148;6.950;2023-02-24T01:42:58;5.35;95.42
64858;SHT30;51335;51.148;6.950;2023-02-24T01:43:29;5.34;95.32
64858;SHT30;51335;51.148;6.950;2023-02-24T01:45:09;5.27;95.66
64858;SHT30;51335;51.148;6.950;2023-02-24T01:45:40;5.27;95.76
64858;SHT30;51335;51.148;6.950;2023-02-24T01:46:11;5.26;95.64
64858;SHT30;51335;51.148;6.950;2023-02-24T01:46:46;5.26;95.68
64858;SHT30;51335;51.148;6.950;2023-02-24T01:47:18;5.27;95.55
64858;SHT30;51335;51.148;6.950;2023-02-24T01:47:49;5.27;95.66
64858;SHT30;51335;51.148;6.950;2023-02-24T01:48:20;5.24;95.87
64858;SHT30;51335;51.148;6.950;2023-02-24T01:48:51;5.21;95.96
64858;SHT30;51335;51.148;6.950;2023-02-24T01:49:39;5.21;95.92
64858;SHT30;51335;51.148;6.950;2023-02-24T01:50:11;5.20;95.89
64858;SHT30;51335;51.148;6.950;2023-02-24T01:50:43;5.23;95.70
64858;SHT30;51335;51.148;6.950;2023-02-24T01:51:13;5.23;95.49
64858;SHT30;51335;51.148;6.950;2023-02-24T01:51:48;5.24;95.46
64858;SHT30;51335;51.148;6.950;2023-02-24T01:52:21;5.27;95.24
64858;SHT30;51335;51.148;6.950;2023-02-24T01:52:57;5.27;95.04
64858;SHT30;51335;51.148;6.950;2023-02-24T01:53:28;5.26;95.24
64858;SHT30;51335;51.148;6.950;2023-02-24T01:54:00;5.24;95.42
64858;SHT30;51335;51.148;6.950;2023-02-24T01:54:36;5.26;95.29
64858;SHT30;51335;51.148;6.950;2023-02-24T01:55:17;5.23;95.01
64858;SHT30;51335;51.148;6.950;2023-02-24T01:55:49;5.17;95.01
64858;SHT30;51335;51.148;6.950;2023-02-24T01:56:20;5.16;95.14
64858;SHT30;51335;51.148;6.950;2023-02-24T01:56:51;5.13;94.92
64858;SHT30;51335;51.148;6.950;2023-02-24T01:57:24;5.14;94.87
64858;SHT30;51335;51.148;6.950;2023-02-24T01:57:56;5.11;94.78
64858;SHT30;51335;51.148;6.950;2023-02-24T01:58:28;5.10;94.97
64858;SHT30;51335;51.148;6.950;2023-02-24T01:59:00;5.16;94.86
64858;SHT30;51335;51.148;6.950;2023-02-24T01:59:32;5.20;94.89
64858;SHT30;51335;51.148;6.950;2023-02-24T02:00:06;5.23;94.63
64858;SHT30;51335;51.148;6.950;2023-02-24T02:00:38;5.27;94.58
64858;SHT30;51335;51.148;6.950;2023-02-24T02:01:09;5.34;94.40
64858;SHT30;51335;51.148;6.950;2023-02-24T02:01:39;5.38;94.24
64858;SHT30;51335;51.148;6.950;2023-02-24T02:02:10;5.45;94.14
64858;SHT30;51335;51.148;6.950;2023-02-24T02:02:43;5.47;93.89
64858;SHT30;51335;51.148;6.950;2023-02-24T02:03:31;5.48;93.61
64858;SHT30;51335;51.148;6.950;2023-02-24T02:04:04;5.45;93.70
64858;SHT30;51335;51.148;6.950;2023-02-24T02:04:40;5.44;93.90
64858;SHT30;51335;51.148;6.950;2023-02-24T02:05:13;5.40;93.87
64858;SHT30;51335;51.148;6.950;2023-02-24T02:05:43;5.40;93.87
64858;SHT30;51335;51.148;6.950;2023-02-24T02:06:14;5.42;93.96
64858;SHT30;51335;51.148;6.950;2023-02-24T02:06:45;5.44;93.81
64858;SHT30;51335;51.148;6.950;2023-02-24T02:07:19;5.27;93.87
64858;SHT30;51335;51.148;6.950;2023-02-24T02:07:51;5.37;94.01
64858;SHT30;51335;51.148;6.950;2023-02-24T02:08:22;5.27;93.87
64858;SHT30;51335;51.148;6.950;2023-02-24T02:08:52;5.23;93.93
64858;SHT30;51335;51.148;6.950;2023-02-24T02:09:23;5.21;94.17
64858;SHT30;51335;51.148;6.950;2023-02-24T02:09:53;5.16;94.16
64858;SHT30;51335;51.148;6.950;2023-02-24T02:10:24;5.11;94.50
64858;SHT30;51335;51.148;6.950;2023-02-24T02:10:57;5.11;94.62
64858;SHT30;51335;51.148;6.950;2023-02-24T02:11:30;5.14;94.48
64858;SHT30;51335;51.148;6.950;2023-02-24T02:12:00;5.16;94.54
64858;SHT30;51335;51.148;6.950;2023-02-24T02:12:33;5.17;94.23
64858;SHT30;51335;51.148;6.950;2023-02-24T02:13:05;5.23;94.22
64858;SHT30;51335;51.148;6.950;2023-02-24T02:13:38;5.17;94.15
64858;SHT30;51335;51.148;6.950;2023-02-24T02:14:09;5.14;94.43
64858;SHT30;51335;51.148;6.950;2023-02-24T02:14:44;5.13;94.63
64858;SHT30;51335;51.148;6.950;2023-02-24T02:15:17;5.11;94.76
64858;SHT30;51335;51.148;6.950;2023-02-24T02:17:34;5.21;94.42
64858;SHT30;51335;51.148;6.950;2023-02-24T02:18:18;5.32;94.00
64858;SHT30;51335;51.148;6.950;2023-02-24T02:23:53;5.37;93.52
64858;SHT30;51335;51.148;6.950;2023-02-24T02:24:58;5.34;93.66
64858;SHT30;51335;51.148;6.950;2023-02-24T02:35:25;4.96;94.47
64858;SHT30;51335;51.148;6.950;2023-02-24T02:36:12;5.03;94.30
64858;SHT30;51335;51.148;6.950;2023-02-24T02:37:31;5.03;93.76
64858;SHT30;51335;51.148;6.950;2023-02-24T02:38:12;5.07;93.63
64858;SHT30;51335;51.148;6.950;2023-02-24T02:38:51;5.04;93.65
64858;SHT30;51335;51.148;6.950;2023-02-24T02:39:52;5.00;93.68
64858;SHT30;51335;51.148;6.950;2023-02-24T02:40:34;5.09;93.58
64858;SHT30;51335;51.148;6.950;2023-02-24T02:41:16;5.07;93.11
64858;SHT30;51335;51.148;6.950;2023-02-24T02:42:56;5.06;93.44
64858;SHT30;51335;51.148;6.950;2023-02-24T02:43:36;5.11;93.11
64858;SHT30;51335;51.148;6.950;2023-02-24T02:44:09;5.14;92.99
64858;SHT30;51335;51.148;6.950;2023-02-24T02:44:55;5.10;92.94
64858;SHT30;51335;51.148;6.950;2023-02-24T02:46:17;5.03;93.19
64858;SHT30;51335;51.148;6.950;2023-02-24T02:46:57;5.06;93.35
64858;SHT30;51335;51.148;6.950;2023-02-24T02:47:46;4.93;93.24
64858;SHT30;51335;51.148;6.950;2023-02-24T02:48:27;4.90;93.60
64858;SHT30;51335;51.148;6.950;2023-02-24T02:49:20;4.94;93.11
64858;SHT30;51335;51.148;6.950;2023-02-24T02:49:57;4.97;92.83
64858;SHT30;51335;51.148;6.950;2023-02-24T02:51:10;4.84;93.17
64858;SHT30;51335;51.148;6.950;2023-02-24T02:51:51;4.84;93.45
64858;SHT30;51335;51.148;6.950;2023-02-24T02:52:29;4.93;93.31
64858;SHT30;51335;51.148;6.950;2023-02-24T02:53:03;5.00;93.13
64858;SHT30;51335;51.148;6.950;2023-02-24T02:54:35;5.09;92.74
64858;SHT30;51335;51.148;6.950;2023-02-24T02:56:28;5.13;92.43
64858;SHT30;51335;51.148;6.950;2023-02-24T02:57:08;5.13;92.56
64858;SHT30;51335;51.148;6.950;2023-02-24T02:57:43;5.07;92.39
64858;SHT30;51335;51.148;6.950;2023-02-24T02:58:19;5.07;92.61
64858;SHT30;51335;51.148;6.950;2023-02-24T02:58:53;5.09;92.45
64858;SHT30;51335;51.148;6.950;2023-02-24T02:59:25;5.10;92.31
64858;SHT30;51335;51.148;6.950;2023-02-24T03:00:09;5.11;92.42
64858;SHT30;51335;51.148;6.950;2023-02-24T03:00:44;5.16;92.25
64858;SHT30;51335;51.148;6.950;2023-02-24T03:01:16;5.10;92.02
64858;SHT30;51335;51.148;6.950;2023-02-24T03:01:49;5.04;92.08
64858;SHT30;51335;51.148;6.950;2023-02-24T03:02:25;4.97;92.31
64858;SHT30;51335;51.148;6.950;2023-02-24T03:02:59;4.89;92.71
64858;SHT30;51335;51.148;6.950;2023-02-24T03:03:37;4.82;92.91
64858;SHT30;51335;51.148;6.950;2023-02-24T03:04:12;4.83;92.98
64858;SHT30;51335;51.148;6.950;2023-02-24T03:04:49;4.79;93.09
64858;SHT30;51335;51.148;6.950;2023-02-24T03:05:27;4.72;93.42
64858;SHT30;51335;51.148;6.950;2023-02-24T03:06:02;4.66;93.50
64858;SHT30;51335;51.148;6.950;2023-02-24T03:06:42;4.65;93.54
64858;SHT30;51335;51.148;6.950;2023-02-24T03:07:14;4.61;93.22
64858;SHT30;51335;51.148;6.950;2023-02-24T03:07:51;4.62;93.34
64858;SHT30;51335;51.148;6.950;2023-02-24T03:08:24;4.58;93.57
64858;SHT30;51335;51.148;6.950;2023-02-24T03:09:02;4.56;93.75
64858;SHT30;51335;51.148;6.950;2023-02-24T03:09:40;4.52;93.98
64858;SHT30;51335;51.148;6.950;2023-02-24T03:10:16;4.52;93.96
64858;SHT30;51335;51.148;6.950;2023-02-24T03:10:47;4.53;94.05
64858;SHT30;51335;51.148;6.950;2023-02-24T03:11:19;4.51;94.08
64858;SHT30;51335;51.148;6.950;2023-02-24T03:11:55;4.51;94.12
64858;SHT30;51335;51.148;6.950;2023-02-24T03:12:28;4.49;94.08
64858;SHT30;51335;51.148;6.950;2023-02-24T03:13:02;4.55;94.05
64858;SHT30;51335;51.148;6.950;2023-02-24T03:13:38;4.53;93.88
64858;SHT30;51335;51.148;6.950;2023-02-24T03:14:11;4.49;93.90
64858;SHT30;51335;51.148;6.950;2023-02-24T03:14:48;4.51;93.86
64858;SHT30;51335;51.148;6.950;2023-02-24T03:15:22;4.52;93.80
64858;SHT30;51335;51.148;6.950;2023-02-24T03:15:54;4.49;93.87
64858;SHT30;51335;51.148;6.950;2023-02-24T03:16:26;4.48;93.85
64858;SHT30;51335;51.148;6.950;2023-02-24T03:16:57;4.49;94.00
64858;SHT30;51335;51.148;6.950;2023-02-24T03:17:31;4.44;93.72
64858;SHT30;51335;51.148;6.950;2023-02-24T03:18:06;4.45;93.76
64858;SHT30;51335;51.148;6.950;2023-02-24T03:18:52;4.41;93.65
64858;SHT30;51335;51.148;6.950;2023-02-24T03:19:31;4.38;93.59
64858;SHT30;51335;51.148;6.950;2023-02-24T03:20:09;4.42;93.79
64858;SHT30;51335;51.148;6.950;2023-02-24T03:20:49;4.40;93.65
64858;SHT30;51335;51.148;6.950;2023-02-24T03:21:32;4.44;93.62
64858;SHT30;51335;51.148;6.950;2023-02-24T03:22:09;4.52;93.23
64858;SHT30;51335;51.148;6.950;2023-02-24T03:23:02;4.58;93.01
64858;SHT30;51335;51.148;6.950;2023-02-24T03:23:45;4.61;92.86
64858;SHT30;51335;51.148;6.950;2023-02-24T03:24:18;4.55;93.01
64858;SHT30;51335;51.148;6.950;2023-02-24T03:24:48;4.52;93.09
64858;SHT30;51335;51.148;6.950;2023-02-24T03:25:22;4.49;93.17
64858;SHT30;51335;51.148;6.950;2023-02-24T03:26:45;4.46;93.45
64858;SHT30;51335;51.148;6.950;2023-02-24T03:26:51;4.52;93.27
64858;SHT30;51335;51.148;6.950;2023-02-24T03:27:27;4.52;93.22
64858;SHT30;51335;51.148;6.950;2023-02-24T03:28:07;4.52;93.29
64858;SHT30;51335;51.148;6.950;2023-02-24T03:28:52;4.51;93.43
64858;SHT30;51335;51.148;6.950;2023-02-24T03:29:37;4.46;93.46
64858;SHT30;51335;51.148;6.950;2023-02-24T03:30:17;4.44;93.66
64858;SHT30;51335;51.148;6.950;2023-02-24T03:30:57;4.40;93.74
64858;SHT30;51335;51.148;6.950;2023-02-24T03:31:33;4.38;93.95
64858;SHT30;51335;51.148;6.950;2023-02-24T03:32:11;4.40;94.04
64858;SHT30;51335;51.148;6.950;2023-02-24T03:32:50;4.34;94.25
64858;SHT30;51335;51.148;6.950;2023-02-24T03:33:27;4.34;94.34
64858;SHT30;51335;51.148;6.950;2023-02-24T03:35:15;4.35;94.31
64858;SHT30;51335;51.148;6.950;2023-02-24T03:35:46;4.38;94.31
64858;SHT30;51335;51.148;6.950;2023-02-24T03:36:17;4.37;94.39
64858;SHT30;51335;51.148;6.950;2023-02-24T03:36:47;4.40;94.21
64858;SHT30;51335;51.148;6.950;2023-02-24T03:37:17;4.38;94.24
64858;SHT30;51335;51.148;6.950;2023-02-24T03:37:48;4.35;94.33
64858;SHT30;51335;51.148;6.950;2023-02-24T03:38:19;4.31;94.47
64858;SHT30;51335;51.148;6.950;2023-02-24T03:38:49;4.35;94.45
64858;SHT30;51335;51.148;6.950;2023-02-24T03:39:20;4.35;94.40
64858;SHT30;51335;51.148;6.950;2023-02-24T03:39:59;4.31;94.49
64858;SHT30;51335;51.148;6.950;2023-02-24T03:40:30;4.31;94.48
64858;SHT30;51335;51.148;6.950;2023-02-24T03:41:00;4.27;94.69
64858;SHT30;51335;51.148;6.950;2023-02-24T03:41:39;4.25;94.75
64858;SHT30;51335;51.148;6.950;2023-02-24T03:42:12;4.24;94.69
64858;SHT30;51335;51.148;6.950;2023-02-24T03:42:51;4.27;94.76
64858;SHT30;51335;51.148;6.950;2023-02-24T03:43:33;4.24;94.86
64858;SHT30;51335;51.148;6.950;2023-02-24T03:44:06;4.20;94.91
64858;SHT30;51335;51.148;6.950;2023-02-24T03:44:37;4.18;94.93
64858;SHT30;51335;51.148;6.950;2023-02-24T03:45:08;4.18;94.96
64858;SHT30;51335;51.148;6.950;2023-02-24T03:45:39;4.21;94.91
64858;SHT30;51335;51.148;6.950;2023-02-24T03:46:11;4.20;94.82
64858;SHT30;51335;51.148;6.950;2023-02-24T03:46:42;4.20;94.79
64858;SHT30;51335;51.148;6.950;2023-02-24T03:47:13;4.20;94.56
64858;SHT30;51335;51.148;6.950;2023-02-24T03:47:43;4.13;94.49
64858;SHT30;51335;51.148;6.950;2023-02-24T03:48:14;4.14;94.49
64858;SHT30;51335;51.148;6.950;2023-02-24T03:48:49;4.13;94.47
64858;SHT30;51335;51.148;6.950;2023-02-24T03:49:22;4.13;94.51
64858;SHT30;51335;51.148;6.950;2023-02-24T03:49:52;4.13;94.48
64858;SHT30;51335;51.148;6.950;2023-02-24T03:50:23;4.11;94.42
64858;SHT30;51335;51.148;6.950;2023-02-24T03:50:53;4.08;94.53
64858;SHT30;51335;51.148;6.950;2023-02-24T03:51:24;4.10;94.52
64858;SHT30;51335;51.148;6.950;2023-02-24T03:57:22;4.21;93.39
64858;SHT30;51335;51.148;6.950;2023-02-24T03:59:49;4.30;92.64
64858;SHT30;51335;51.148;6.950;2023-02-24T04:00:26;4.28;92.50
64858;SHT30;51335;51.148;6.950;2023-02-24T04:01:17;4.24;92.69
64858;SHT30;51335;51.148;6.950;2023-02-24T04:01:54;4.20;92.97
64858;SHT30;51335;51.148;6.950;2023-02-24T04:02:30;4.22;92.83
64858;SHT30;51335;51.148;6.950;2023-02-24T04:03:24;4.20;92.83
64858;SHT30;51335;51.148;6.950;2023-02-24T04:04:06;4.15;93.03
64858;SHT30;51335;51.148;6.950;2023-02-24T04:04:45;4.15;93.11
64858;SHT30;51335;51.148;6.950;2023-02-24T04:05:20;4.15;93.15
64858;SHT30;51335;51.148;6.950;2023-02-24T04:06:07;4.10;93.23